This is the latest recevied weather packets stored in our database for station/object W1MJC. If no packets are shown the sender has not sent any weather packets the latest 10 day(s).
| Time | Temp. | Humidity | Pressure | Rain* | Wind** | Luminosity | Snow |
|---|---|---|---|---|---|---|---|
| 1777487716 | 12.22° C | 75% | 1007.6 hPa | 0 mm | - | - | - |
| 1777487120 | 12.22° C | 76% | 1007.6 hPa | 0 mm | - | - | - |
| 1777484718 | 12.78° C | 70% | 1007.8 hPa | 0 mm | - | - | - |
| 1777483521 | 13.33° C | 70% | 1007.8 hPa | 0 mm | - | - | - |
| 1777479968 | 13.89° C | 75% | 1008.5 hPa | 0 mm | - | - | - |
| 1777478717 | 12.22° C | 81% | 1008.8 hPa | 0 mm | - | - | - |
| 1777472127 | 9.44° C | 96% | 1009.1 hPa | 0 mm | - | - | - |
| 1777470937 | 8.89° C | 97% | 1009.4 hPa | 0 mm | - | - | - |
| 1777470341 | 8.89° C | 97% | 1009.6 hPa | 0 mm | - | - | - |
| 1777469725 | 8.33° C | 96% | 1009.7 hPa | 0 mm | - | - | - |
| 1777466748 | 8.33° C | 97% | 1009.9 hPa | 0 mm | - | - | - |
| 1777460139 | 8.33° C | 96% | 1010 hPa | 0.76 mm | - | - | - |
| 1777457136 | 8.89° C | 93% | 1008.9 hPa | 0 mm | - | - | - |
| 1777451717 | 9.44° C | 91% | 1009.5 hPa | 0 mm | - | - | - |
| 1777450546 | 9.44° C | 91% | 1009.4 hPa | 0 mm | - | - | - |
| 1777448124 | 9.44° C | 94% | 1009.3 hPa | 0 mm | - | - | - |
| 1777445723 | 8.89° C | 96% | 1010.2 hPa | 0 mm | - | - | - |
| 1777443316 | 8.89° C | 96% | 1010.1 hPa | 0 mm | - | - | - |
| 1777440339 | 8.33° C | 97% | 1010.1 hPa | 0 mm | - | - | - |
| 1777436726 | 8.33° C | 97% | 1010.2 hPa | 0 mm | - | - | - |
| 1777435516 | 8.33° C | 97% | 1010.6 hPa | 0 mm | - | - | - |
| 1777433133 | 8.33° C | 96% | 1011 hPa | 0 mm | - | - | - |
| 1777430117 | 9.44° C | 94% | 1010.6 hPa | 0 mm | - | - | - |
| 1777428330 | 10.56° C | 89% | 1009.3 hPa | 0 mm | - | - | - |
| 1777424117 | 12.22° C | 80% | 1009.2 hPa | 0 mm | - | - | - |
* Rain latest hour (hover to see other rain measurements)
** Current wind speed in m/s (hover to see current wind gust speed)